02:13
Airports
History
Links
Donate
Help keep this website running!
PayPal
Bitcoin
This page is community maintained. The information is intended for PC simulator navigation or reference.
Always use approved charts for navigation.
NSFI
Fagalii
Fagalii (NSFI)
Apia, Tuamasaga, Samoa
(U)
Lat/Lng:13° 50' 57.33" S / 171° 44' 22.77" W
-13.849258 / -171.739659
Elevation:131'ft / 40mMSL
ID / ICAO:NSFI
Runways:1
Longest:11-29
Asphalt 692m / 2,270ft
Nearby Weather23:00 GMT 2018-02-23
Nearby weather at NSFA, Faleolo International located 18.1 nautical miles from NSFI
Altimeter: 29.88
Visibility: 6.2 statute miles
Wind: 18 knots (from 040°)
Temp: 27°c / 81°f
Humidity: 88.8%

METAR: NSFA 232300Z 04018KT 9999 FEW020 SCT040 OVC100 27/25 Q1012

(Powered by phpweather)
Runway 11 / 29
Dimensions:692 x 15.9m 2270' x 52'ft
Surface:Asphalt
Runway 11 [A]Runway 29 [B]
Heading:110°TH 290°TH
Lat:
Lng:
13° 50' 53.39"S
171° 44' 33.56"W
13° 51' 1.27"S
171° 44' 11.98"W
User Notes and Comments
13° 50' 57.33" S / 171° 44' 22.77" W
Distance To
Airport ID:
Nearby Airports
(C) Faleolo International 18.1 NM
NSFA ( WX ) W 274°
(U) Maota 35.5 NM
NSMA W 281°
(U) Asau 64.2 NM
NSAU WNW 291°
4 NIUATOPUTAPU 200.9 NM
NFTP SW 222°
4 Niuafo'ou 285.9 NM
NFTO WSW 245°
(C) WALLIS 302.5 NM
NLWW ( WX ) W 278°
(C) VAVAU INTL 358.9 NM
NFTV SSW 204°
VFR Chart
Flight Planning at SkyVector.com